createdAt,value
2019-06-10T00:06:46.677Z,2.33
2019-06-10T02:32:17.952Z,2.53
2019-06-10T02:35:08.102Z,3.70
2019-06-10T02:37:32.617Z,2.60
2019-06-10T02:40:09.917Z,3.30
2019-06-10T02:42:44.015Z,2.30
2019-06-10T02:48:19.661Z,3.03
2019-06-10T02:51:35.233Z,3.07
2019-06-10T03:36:34.314Z,3.57
2019-06-10T03:39:03.891Z,3.30
2019-06-10T03:50:47.403Z,4.10
2019-06-10T03:53:17.204Z,3.67
2019-06-10T03:55:54.629Z,3.43
2019-06-10T03:58:25.966Z,4.00
2019-06-10T04:01:03.471Z,3.27
2019-06-10T04:03:35.545Z,3.60
2019-06-10T04:06:04.743Z,3.50
2019-06-10T04:08:35.917Z,3.17
2019-06-10T04:11:03.946Z,3.40
2019-06-10T04:13:33.774Z,3.97
2019-06-10T04:16:03.117Z,4.80
2019-06-10T04:18:33.692Z,4.37
2019-06-10T04:21:02.622Z,4.50
2019-06-10T04:23:33.466Z,4.60
2019-06-10T04:26:02.551Z,4.43
2019-06-10T04:28:33.741Z,5.10
2019-06-10T04:31:13.135Z,4.60
2019-06-10T04:33:42.204Z,4.87
2019-06-10T04:36:13.318Z,4.40
2019-06-10T04:38:43.195Z,4.50
2019-06-10T04:41:15.434Z,4.40
2019-06-10T05:03:12.183Z,5.07
2019-06-10T05:09:08.778Z,5.67
2019-06-10T05:11:47.937Z,5.43
2019-06-10T05:17:43.933Z,5.00
2019-06-10T05:44:17.472Z,5.60
2019-06-10T05:49:37.374Z,5.70
2019-06-10T05:52:06.198Z,4.87
2019-06-10T06:04:13.141Z,5.20
2019-06-10T06:13:03.073Z,4.93
2019-06-10T06:15:54.448Z,4.47
2019-06-10T06:28:03.100Z,5.20
2019-06-10T06:30:34.587Z,4.80
2019-06-10T06:33:03.002Z,5.00
2019-06-10T06:36:03.560Z,4.90
2019-06-10T06:41:23.432Z,4.60
2019-06-10T06:44:14.792Z,5.63
2019-06-10T06:53:25.632Z,5.40
2019-06-10T06:59:13.826Z,5.03
2019-06-10T07:07:52.768Z,5.00
2019-06-10T07:10:26.715Z,5.10
2019-06-10T07:13:06.224Z,5.53
2019-06-10T07:15:53.472Z,4.90
2019-06-10T07:18:29.179Z,4.37
2019-06-10T07:24:03.149Z,5.20
2019-06-10T07:29:26.723Z,5.70
2019-06-10T07:32:03.370Z,5.23
2019-06-10T07:34:47.046Z,5.10
2019-06-10T07:43:49.508Z,5.63
2019-06-10T07:46:28.268Z,6.00
2019-06-10T07:54:52.763Z,4.90
2019-06-10T07:57:22.586Z,5.20
2019-06-10T07:59:52.289Z,5.00
2019-06-10T08:02:23.164Z,5.70
2019-06-10T08:04:54.138Z,4.80
2019-06-10T08:07:22.547Z,5.40
2019-06-10T08:09:53.242Z,4.93
2019-06-10T08:12:24.659Z,5.17
2019-06-10T08:15:03.242Z,4.87
2019-06-10T08:17:49.666Z,5.67
2019-06-10T08:20:43.216Z,4.73
2019-06-10T08:27:22.687Z,4.67
2019-06-10T08:30:14.353Z,5.33
2019-06-10T08:33:03.322Z,5.83
2019-06-10T08:39:03.038Z,5.33
2019-06-10T08:41:36.425Z,5.33
2019-06-10T08:44:13.451Z,4.90
2019-06-10T08:46:44.985Z,5.33
2019-06-10T08:49:17.740Z,4.90
2019-06-10T08:54:45.221Z,4.67
2019-06-10T08:57:12.645Z,5.27
2019-06-10T08:59:45.626Z,4.87
2019-06-10T09:02:12.506Z,5.20
2019-06-10T09:04:43.670Z,5.47
2019-06-10T09:07:12.593Z,5.20
2019-06-10T09:09:48.531Z,4.87
2019-06-10T09:12:28.666Z,4.90
2019-06-10T09:14:48.192Z,4.83
2019-06-10T09:17:16.811Z,5.20
2019-06-10T09:19:49.794Z,5.17
2019-06-10T09:22:17.200Z,5.60
2019-06-10T09:24:50.422Z,5.73
2019-06-10T09:27:18.453Z,5.00
2019-06-10T09:29:49.786Z,5.20
2019-06-10T09:32:22.868Z,4.87
2019-06-10T09:34:57.603Z,5.60
2019-06-10T09:37:35.640Z,4.90
2019-06-10T09:40:07.993Z,4.80
2019-06-10T09:42:45.529Z,5.50
2019-06-10T09:48:13.147Z,5.17
2019-06-10T09:50:58.724Z,5.23
2019-06-10T09:53:33.881Z,5.03
2019-06-10T09:55:57.738Z,4.90
2019-06-10T09:58:28.536Z,5.80
2019-06-10T10:00:59.086Z,5.90
2019-06-10T10:03:27.992Z,5.40
2019-06-10T10:06:09.758Z,5.27
2019-06-10T10:08:34.366Z,4.80
2019-06-10T10:11:03.332Z,5.23
2019-06-10T10:13:39.474Z,4.93
2019-06-10T10:16:09.613Z,5.37
2019-06-10T10:18:38.549Z,4.90
2019-06-10T10:21:35.064Z,4.97
2019-06-10T10:24:14.599Z,5.63
2019-06-10T10:26:44.769Z,5.30
2019-06-10T10:29:13.023Z,5.40
2019-06-10T10:31:45.246Z,5.30
2019-06-10T10:34:13.448Z,5.33
2019-06-10T10:36:48.313Z,5.07
2019-06-10T10:39:21.287Z,5.60
2019-06-10T10:41:50.234Z,5.90
2019-06-10T10:44:28.361Z,5.43
2019-06-10T10:46:57.217Z,5.10
2019-06-10T10:49:27.464Z,5.00
2019-06-10T10:51:56.108Z,6.30
2019-06-10T10:54:32.798Z,5.40
2019-06-10T10:57:04.734Z,5.83
2019-06-10T10:59:57.780Z,5.87
2019-06-10T11:02:26.854Z,5.50
2019-06-10T11:04:57.244Z,6.20
2019-06-10T11:07:42.265Z,6.03
2019-06-10T11:10:12.739Z,5.67
2019-06-10T11:26:53.238Z,5.20
2019-06-10T11:30:21.271Z,6.07
2019-06-10T11:33:04.805Z,6.00
2019-06-10T11:35:33.774Z,5.90
2019-06-10T11:38:14.181Z,6.10
2019-06-10T11:40:42.983Z,5.80
2019-06-10T11:47:03.206Z,6.07
2019-06-10T11:49:47.186Z,6.00
2019-06-10T11:52:15.897Z,6.70
2019-06-10T11:54:59.198Z,5.57
2019-06-10T11:57:26.858Z,6.27
2019-06-10T11:59:56.558Z,5.93
2019-06-10T12:02:27.316Z,5.40
2019-06-10T12:05:00.356Z,5.53
2019-06-10T12:07:28.765Z,6.30
2019-06-10T12:10:01.110Z,5.27
2019-06-10T12:12:33.431Z,4.93
2019-06-10T12:15:01.482Z,6.17
2019-06-10T12:17:42.986Z,5.20
2019-06-10T12:20:03.023Z,5.70
2019-06-10T12:22:32.949Z,4.90
2019-06-10T12:25:26.754Z,5.20
2019-06-10T12:27:32.844Z,5.60
2019-06-10T12:30:04.853Z,5.60
2019-06-10T12:32:33.627Z,5.50
2019-06-10T12:35:05.296Z,5.30
2019-06-10T12:37:33.823Z,5.87
2019-06-10T12:40:05.798Z,4.73
2019-06-10T12:42:34.649Z,4.63
2019-06-10T12:45:08.520Z,4.50
2019-06-10T12:47:37.496Z,4.90
2019-06-10T12:50:08.189Z,5.07
2019-06-10T12:52:36.813Z,5.10
2019-06-10T12:55:08.931Z,4.23
2019-06-10T12:57:42.683Z,4.87
2019-06-10T13:00:20.451Z,6.13
2019-06-10T13:02:42.968Z,4.73
2019-06-10T13:05:12.173Z,5.00
2019-06-10T13:07:43.624Z,5.83
2019-06-10T13:10:13.083Z,5.27
2019-06-10T13:12:42.916Z,5.93
2019-06-10T13:15:12.746Z,5.40
2019-06-10T13:17:44.005Z,5.40
2019-06-10T13:20:13.737Z,6.20
2019-06-10T13:22:43.777Z,6.20
2019-06-10T13:25:13.415Z,5.60
2019-06-10T13:27:42.809Z,5.53
2019-06-10T13:30:12.443Z,5.60
2019-06-10T13:32:43.286Z,5.70
2019-06-10T13:35:12.471Z,5.60
2019-06-10T13:37:42.839Z,6.53
2019-06-10T13:40:13.014Z,6.23
2019-06-10T13:42:43.249Z,6.23
2019-06-10T13:45:12.279Z,6.90
2019-06-10T13:47:43.020Z,7.37
2019-06-10T13:50:14.441Z,6.80
2019-06-10T13:52:43.322Z,7.13
2019-06-10T13:55:14.079Z,6.33
2019-06-10T13:57:44.712Z,6.63
2019-06-10T14:00:14.851Z,6.60
2019-06-10T14:02:43.985Z,7.37
2019-06-10T14:05:18.282Z,7.07
2019-06-10T14:07:44.296Z,6.30
2019-06-10T14:10:18.038Z,6.33
2019-06-10T14:12:48.636Z,7.67
2019-06-10T14:15:17.010Z,6.90
2019-06-10T14:17:45.008Z,7.27
2019-06-10T14:20:15.496Z,7.37
2019-06-10T14:22:44.523Z,8.47
2019-06-10T14:25:16.862Z,9.23
2019-06-10T14:27:43.617Z,8.50
2019-06-10T14:30:15.464Z,9.30
2019-06-10T14:32:45.508Z,9.50
2019-06-10T14:35:16.313Z,9.57
2019-06-10T14:37:44.561Z,9.60
2019-06-10T14:40:20.844Z,9.40
2019-06-10T14:42:44.718Z,8.90
2019-06-10T14:45:16.458Z,8.47
2019-06-10T14:47:44.312Z,9.60
2019-06-10T14:50:14.326Z,8.77
2019-06-10T14:52:43.568Z,10.13
2019-06-10T14:55:16.391Z,8.37
2019-06-10T14:57:43.137Z,7.97
2019-06-10T15:00:15.604Z,8.20
2019-06-10T15:02:42.985Z,9.13
2019-06-10T15:05:15.314Z,10.00
2019-06-10T15:07:42.415Z,8.00
2019-06-10T15:10:14.448Z,8.87
2019-06-10T15:12:42.304Z,8.80
2019-06-10T15:15:12.140Z,8.27
2019-06-10T15:17:43.693Z,7.83
2019-06-10T15:20:13.690Z,7.87
2019-06-10T15:22:43.142Z,7.70
2019-06-10T15:25:15.230Z,8.77
2019-06-10T15:27:42.850Z,6.77
2019-06-10T15:30:20.751Z,8.20
2019-06-10T15:32:42.768Z,7.90
2019-06-10T15:35:14.159Z,8.80
2019-06-10T15:37:43.026Z,8.63
2019-06-10T15:40:14.088Z,8.17
2019-06-10T15:42:43.712Z,8.10
2019-06-10T15:45:16.269Z,8.70
2019-06-10T15:47:42.949Z,8.80
2019-06-10T15:50:13.167Z,7.60
2019-06-10T15:52:43.132Z,9.40
2019-06-10T15:55:14.902Z,8.97
2019-06-10T15:57:45.637Z,8.30
2019-06-10T16:00:17.692Z,9.07
2019-06-10T16:02:43.354Z,9.33
2019-06-10T16:05:14.412Z,8.90
2019-06-10T16:07:45.139Z,8.30
2019-06-10T16:10:18.879Z,8.60
2019-06-10T16:12:44.889Z,8.43
2019-06-10T16:15:16.146Z,8.20
2019-06-10T16:17:44.271Z,8.70
2019-06-10T16:20:14.397Z,9.00
2019-06-10T16:22:46.031Z,7.47
2019-06-10T16:25:15.845Z,8.20
2019-06-10T16:27:50.860Z,8.83
2019-06-10T16:30:18.230Z,8.60
2019-06-10T16:32:46.988Z,8.30
2019-06-10T16:35:16.777Z,8.83
2019-06-10T16:37:45.523Z,9.30
2019-06-10T16:40:15.167Z,8.63
2019-06-10T16:42:43.927Z,8.60
2019-06-10T16:45:13.025Z,8.57
2019-06-10T16:47:43.104Z,9.10
2019-06-10T16:50:13.646Z,8.57
2019-06-10T16:52:43.099Z,9.90
2019-06-10T16:55:12.758Z,9.30
2019-06-10T16:57:41.635Z,8.30
2019-06-10T17:00:14.644Z,8.97
2019-06-10T17:02:44.494Z,8.60
2019-06-10T17:05:14.830Z,9.20
2019-06-10T17:07:43.582Z,9.33
2019-06-10T17:10:12.748Z,9.63
2019-06-10T17:12:42.634Z,9.80
2019-06-10T17:15:13.074Z,8.63
2019-06-10T17:17:42.046Z,8.90
2019-06-10T17:20:13.121Z,8.90
2019-06-10T17:22:43.467Z,8.33
2019-06-10T17:25:13.036Z,8.17
2019-06-10T17:27:42.284Z,9.47
2019-06-10T17:30:13.207Z,9.40
2019-06-10T17:32:42.618Z,8.93
2019-06-10T17:35:12.628Z,8.50
2019-06-10T17:37:43.621Z,8.50
2019-06-10T17:40:15.336Z,9.43
2019-06-10T17:42:45.822Z,8.03
2019-06-10T17:45:14.682Z,9.03
2019-06-10T17:47:44.465Z,9.50
2019-06-10T17:50:13.804Z,9.73
2019-06-10T17:52:42.832Z,8.13
2019-06-10T17:55:12.603Z,9.03
2019-06-10T17:57:42.968Z,8.77
2019-06-10T18:00:14.898Z,8.90
2019-06-10T18:03:16.013Z,8.73
2019-06-10T18:05:56.664Z,8.90
2019-06-10T18:08:22.370Z,8.10
2019-06-10T18:10:53.495Z,8.60
2019-06-10T18:13:22.708Z,9.33
2019-06-10T18:15:54.996Z,9.27
2019-06-10T18:18:26.380Z,9.30
2019-06-10T18:20:55.934Z,9.30
2019-06-10T18:23:26.450Z,9.50
2019-06-10T18:25:56.723Z,10.17
2019-06-10T18:28:56.611Z,9.10
2019-06-10T18:31:12.056Z,9.07
2019-06-10T18:33:49.820Z,8.90
2019-06-10T18:36:16.598Z,9.50
2019-06-10T18:38:45.849Z,9.37
2019-06-10T18:41:14.909Z,9.13
2019-06-10T18:43:45.952Z,9.43
2019-06-10T18:46:15.768Z,8.70
2019-06-10T18:48:46.365Z,9.07
2019-06-10T18:51:18.389Z,9.47
2019-06-10T18:53:50.422Z,9.77
2019-06-10T18:56:19.596Z,8.67
2019-06-10T18:58:53.142Z,9.63
2019-06-10T19:01:24.562Z,9.30
2019-06-10T19:03:53.418Z,8.53
2019-06-10T19:06:28.613Z,10.60
2019-06-10T19:08:57.674Z,10.80
2019-06-10T19:11:26.530Z,9.00
2019-06-10T19:13:59.934Z,8.97
2019-06-10T19:16:32.618Z,9.40
2019-06-10T19:19:03.230Z,8.33
2019-06-10T19:21:36.311Z,8.80
2019-06-10T19:24:05.639Z,8.70
2019-06-10T19:26:37.344Z,9.97
2019-06-10T19:29:05.791Z,10.57
2019-06-10T19:31:38.075Z,8.87
2019-06-10T19:34:05.863Z,10.30
2019-06-10T19:36:36.097Z,9.90
2019-06-10T19:39:08.882Z,9.53
2019-06-10T19:41:44.154Z,9.80
2019-06-10T19:44:14.469Z,9.83
2019-06-10T19:46:44.342Z,9.47
2019-06-10T19:49:13.600Z,9.27
2019-06-10T19:51:46.735Z,10.13
2019-06-10T19:57:28.697Z,10.20
2019-06-10T20:00:10.607Z,9.03
2019-06-10T20:02:33.006Z,10.90
2019-06-10T20:05:03.430Z,10.33
2019-06-10T20:07:33.972Z,11.00
2019-06-10T20:10:06.103Z,10.13
2019-06-10T20:12:38.131Z,10.10
2019-06-10T20:15:08.490Z,10.23
2019-06-10T20:17:37.636Z,12.27
2019-06-10T20:20:09.983Z,11.30
2019-06-10T20:22:43.592Z,11.70
2019-06-10T20:25:15.211Z,10.47
2019-06-10T20:27:44.043Z,10.77
2019-06-10T20:30:24.125Z,10.97
2019-06-10T20:32:46.500Z,11.23
2019-06-10T20:35:14.815Z,10.83
2019-06-10T20:37:44.639Z,10.80
2019-06-10T20:40:18.080Z,10.77
2019-06-10T20:42:46.973Z,11.53
2019-06-10T20:45:15.872Z,11.60
2019-06-10T20:47:46.706Z,12.60
2019-06-10T20:50:15.378Z,11.60
2019-06-10T20:52:45.987Z,12.07
2019-06-10T21:01:43.297Z,11.70
2019-06-10T21:28:21.955Z,12.90
2019-06-10T21:31:10.515Z,14.60
2019-06-10T21:33:55.663Z,12.57
2019-06-10T21:43:29.096Z,13.70
2019-06-10T21:46:05.179Z,14.17
2019-06-10T21:48:23.118Z,13.10
2019-06-10T21:57:42.599Z,15.00
2019-06-10T22:00:17.527Z,14.67
2019-06-10T22:02:47.064Z,16.17
2019-06-10T22:05:16.684Z,16.47
2019-06-10T22:07:45.478Z,15.80
2019-06-10T22:10:14.620Z,16.40
2019-06-10T22:12:43.968Z,16.97
2019-06-10T22:15:13.480Z,16.70
2019-06-10T22:17:42.646Z,16.47
2019-06-10T22:20:12.396Z,16.47
2019-06-10T22:22:42.897Z,16.77
2019-06-10T22:25:13.173Z,18.80
2019-06-10T22:27:42.205Z,19.73
2019-06-10T22:30:11.829Z,19.90
2019-06-10T22:32:42.754Z,19.87
2019-06-10T22:35:17.662Z,19.43
2019-06-10T22:38:03.400Z,20.43
2019-06-10T22:40:32.933Z,19.90
2019-06-10T22:43:03.441Z,20.00
2019-06-10T22:45:33.871Z,20.63
2019-06-10T22:48:04.598Z,20.67
2019-06-10T22:50:33.545Z,20.47
2019-06-10T22:53:03.913Z,22.43
2019-06-10T22:55:32.631Z,21.40
2019-06-10T22:58:03.185Z,22.67
2019-06-10T23:00:33.279Z,24.27
2019-06-10T23:03:02.769Z,23.70
2019-06-10T23:05:43.116Z,23.70
2019-06-10T23:17:57.509Z,25.33
2019-06-10T23:20:27.102Z,25.50
2019-06-10T23:22:57.293Z,25.37
2019-06-10T23:25:26.183Z,23.23
2019-06-10T23:27:56.684Z,24.50
2019-06-10T23:30:25.290Z,24.63
2019-06-10T23:32:56.112Z,24.73
2019-06-10T23:35:34.459Z,23.73
2019-06-10T23:38:05.205Z,24.40
2019-06-10T23:40:33.734Z,26.47
2019-06-10T23:49:18.060Z,21.07
2019-06-10T23:51:46.742Z,16.73
2019-06-10T23:57:16.333Z,18.30
